Bagdad, Florida
Current Conditions -  °F | °C
As of 8:19 PM on Sunday 23 Nov 2014 (Local Time) from KNDZ Reporting Station
Haze Haze  
Wind Chill: 19°   Ceiling: 300
Heat Index: 19°   Visibility: 0.75mi
Dew Point: 17°   Wind: 9mph
Humidity: 90%   Direction: 190°S
Pressure: 29.76"   Gusts: NA
Location:  30.6°N, 87.04°W
Report Text: KNDZ 240219Z AUTO 19008KT 3/4SM BR VV003 19/17 A2976 RMK AO2 T01890172 $
Loading
Personal Weather Stations






























Interactive Weather Map New forecast layout! Learn more

10-Day Weather Forecast

Advertisements
Track Severe Weather on mobile